Terminal Aerodrome Forecast
Issued by NWS

Home | Current Version | Previous Version | Text Only | Print | Product List | Glossary On
Versions: 1 2 3 4 5 6 7 8 9 10 11 12 13
000
FTUS43 KIWX 311721
TAFSBN
TAF
KSBN 311721Z 3118/0118 30014G23KT P6SM SCT060
     FM010000 30007KT P6SM FEW060
     FM011700 27009G15KT P6SM SCT050=

USA.gov is the U.S. government's official web portal to all federal, state and local government web resources and services.